EGAA

Belfast International Airport

Belfast, United Kingdom
METAR EGAA 201250Z 30005KT 2500 BR BKN001 02/02 Q1000
Observed Flight Rules
Jan-20 @ 12:50 UTC (22 minutes ago) Instrument Flight Rules
Wind Visibility Clouds Conditions
300° at 5 knots 2,494 meters
  • Broken at 100' AGL
  • Mist
Temperatures Readings
Current 2°C / 36°F
Dewpoint 2°C / 36°F
Humidity 100%
Altimeter 29.53" Hg
Pressure 1000 hPa
Elevation 81
METAR EGAA 201250Z 30005KT 2500 BR BKN001 02/02 Q1000
Observed Flight Rules
Jan-20 @ 12:50 UTC
(22 minutes ago)
LIFR
Wind Visibility
300° at 5 knots 2,494 meters
Clouds
  • Broken at 100' AGL
Conditions
  • Mist
Temperature Dewpoint
2°C / 36°F 2°C / 36°F
Humidity Altimeter Pressure
100% 29.53" Hg 1000 hPa